Time;durP1;ratioP1;P1;durP2;ratioP2;P2;SDS_P1;SDS_P2;PMS_P1;PMS_P2;Temp;Humidity;BMP_temperature;BMP_pressure;BME280_temperature;BME280_humidity;BME280_pressure;Samples;Min_cycle;Max_cycle;Signal;HPM_P1;HPM_P2
2023/03/16 00:03:29;;;;;;;30.60;13.20;;;22.30;57.80;;;;;;222495;1263;23744;-54
2023/03/16 00:08:34;;;;;;;25.50;13.00;;;22.30;58.60;;;;;;222137;1247;25488;-57
2023/03/16 00:13:38;;;;;;;20.70;12.80;;;22.30;58.30;;;;;;222309;1263;24190;-47
2023/03/16 00:18:42;;;;;;;22.30;12.30;;;22.20;58.10;;;;;;222232;1256;22544;-56
2023/03/16 00:23:46;;;;;;;25.40;11.20;;;22.10;58.10;;;;;;222241;1262;22517;-56
2023/03/16 00:28:53;;;;;;;19.00;11.10;;;22.00;58.30;;;;;;222245;1263;22534;-54
2023/03/16 00:33:56;;;;;;;19.70;11.40;;;21.90;57.80;;;;;;222131;1263;24233;-54
2023/03/16 00:39:01;;;;;;;21.70;11.40;;;21.90;57.70;;;;;;222111;1263;23883;-51
2023/03/16 00:44:05;;;;;;;17.30;10.70;;;21.90;57.60;;;;;;222214;1263;24366;-55
2023/03/16 06:56:57;;;;;;;6.40;3.30;;;22.90;52.90;;;;;;221895;1265;22534;-48
2023/03/16 07:02:03;;;;;;;5.80;3.50;;;22.80;54.40;;;;;;221986;1265;24240;-45
2023/03/16 07:07:23;;;;;;;8.90;4.00;;;22.90;53.30;;;;;;221844;1264;22515;-51
2023/03/16 07:12:29;;;;;;;4.60;3.90;;;22.90;53.40;;;;;;221907;1265;24189;-50
2023/03/16 07:17:33;;;;;;;6.40;3.80;;;22.80;53.30;;;;;;221910;1265;22550;-55
2023/03/16 07:22:40;;;;;;;6.40;4.20;;;22.70;53.60;;;;;;221964;1266;22742;-52
2023/03/16 07:27:46;;;;;;;3.90;3.40;;;22.90;53.60;;;;;;222036;1263;25469;-51
2023/03/16 07:32:54;;;;;;;6.40;3.30;;;22.70;53.40;;;;;;221918;1270;25316;-52
2023/03/16 07:38:00;;;;;;;18.10;3.50;;;22.50;53.80;;;;;;221914;1266;22696;-54
2023/03/16 07:43:04;;;;;;;9.40;4.00;;;22.60;53.70;;;;;;221850;1269;22514;-47
2023/03/16 07:48:18;;;;;;;5.50;3.20;;;22.60;53.90;;;;;;221803;1263;26311;-46
2023/03/16 07:53:35;;;;;;;6.50;3.40;;;22.60;53.10;;;;;;224241;1269;22511;-54
2023/03/16 07:58:52;;;;;;;6.20;2.90;;;22.70;53.00;;;;;;221898;1269;23885;-53
2023/03/16 08:03:56;;;;;;;6.70;3.50;;;22.70;52.80;;;;;;224732;1267;22501;-54
2023/03/16 08:09:01;;;;;;;8.40;3.10;;;22.40;53.30;;;;;;222205;1263;22989;-55
2023/03/16 08:14:08;;;;;;;4.30;3.20;;;22.30;53.70;;;;;;222026;1263;25246;-52
2023/03/16 08:19:32;;;;;;;5.30;2.80;;;22.20;54.00;;;;;;222167;1263;25383;-54
2023/03/16 08:24:37;;;;;;;4.60;3.20;;;22.20;54.00;;;;;;222081;1263;22525;-51
2023/03/16 08:29:44;;;;;;;4.10;3.00;;;22.20;53.70;;;;;;222152;1263;23876;-56
2023/03/16 08:34:52;;;;;;;4.00;3.00;;;22.20;53.70;;;;;;222149;1269;24337;-52
2023/03/16 08:39:59;;;;;;;3.40;3.10;;;22.20;53.60;;;;;;222200;1252;22752;-52
2023/03/16 08:45:08;;;;;;;5.00;2.90;;;22.20;53.70;;;;;;222055;1263;24245;-52
2023/03/16 08:50:18;;;;;;;4.20;2.60;;;22.20;53.60;;;;;;222295;1268;24233;-55
2023/03/16 08:55:23;;;;;;;5.90;2.60;;;22.10;53.60;;;;;;222219;1270;25259;-50
2023/03/16 09:00:28;;;;;;;3.60;2.80;;;22.10;53.70;;;;;;222246;1263;22660;-48
2023/03/16 09:05:33;;;;;;;6.60;2.80;;;22.30;53.10;;;;;;222318;1266;22525;-47
2023/03/16 09:10:38;;;;;;;8.00;2.90;;;22.40;53.00;;;;;;222079;1265;23535;-44
2023/03/16 09:15:42;;;;;;;8.00;3.00;;;22.30;53.40;;;;;;222222;1264;22510;-46
2023/03/16 09:20:46;;;;;;;12.10;3.40;;;22.20;53.60;;;;;;222212;1264;24193;-52
2023/03/16 09:25:52;;;;;;;7.10;3.20;;;22.20;53.50;;;;;;222222;1270;23891;-52
2023/03/16 09:31:00;;;;;;;10.80;3.30;;;22.30;53.50;;;;;;222126;1269;22735;-55
2023/03/16 09:36:04;;;;;;;6.60;3.30;;;22.40;53.40;;;;;;222156;1265;22518;-48
2023/03/16 09:41:15;;;;;;;7.90;3.30;;;22.50;53.30;;;;;;222401;1267;26009;-48
2023/03/16 09:46:28;;;;;;;8.30;3.00;;;22.30;53.00;;;;;;222357;1260;22520;-49
2023/03/16 09:52:02;;;;;;;10.00;3.00;;;22.30;52.60;;;;;;222038;1269;22535;-50
2023/03/16 09:57:31;;;;;;;5.80;2.60;;;22.30;52.80;;;;;;222126;1261;22769;-53
2023/03/16 10:02:57;;;;;;;7.40;2.70;;;22.30;52.70;;;;;;222204;1263;22508;-52
2023/03/16 10:08:12;;;;;;;6.50;2.60;;;22.50;52.50;;;;;;222229;1263;22777;-51
2023/03/16 10:13:56;;;;;;;7.30;2.90;;;22.50;52.50;;;;;;222321;1267;22640;-50
2023/03/16 10:19:26;;;;;;;6.40;2.80;;;22.50;51.70;;;;;;222321;1263;22511;-52
2023/03/16 10:24:33;;;;;;;6.10;2.80;;;22.60;52.10;;;;;;222283;1263;25096;-46
2023/03/16 10:29:37;;;;;;;3.80;2.20;;;22.40;52.80;;;;;;222142;1263;22519;-50
2023/03/16 10:34:47;;;;;;;5.40;3.00;;;22.50;53.10;;;;;;222318;1266;23365;-50
2023/03/16 10:39:52;;;;;;;7.40;2.50;;;22.70;52.30;;;;;;222412;1254;22523;-48
2023/03/16 10:44:57;;;;;;;8.00;2.50;;;22.70;52.60;;;;;;222187;1266;25316;-48
2023/03/16 10:50:15;;;;;;;4.40;2.20;;;22.70;52.40;;;;;;222258;1263;22504;-50
2023/03/16 10:55:23;;;;;;;4.40;2.30;;;22.50;52.90;;;;;;222310;1263;22631;-53
2023/03/16 11:00:33;;;;;;;4.90;2.20;;;22.50;52.90;;;;;;222320;1263;22532;-49
2023/03/16 11:05:37;;;;;;;4.80;2.20;;;22.40;53.30;;;;;;222325;1263;22517;-53
2023/03/16 11:10:46;;;;;;;2.60;2.10;;;22.50;52.50;;;;;;222445;1256;22630;-53
2023/03/16 11:16:13;;;;;;;3.60;2.30;;;22.40;52.50;;;;;;222303;1256;24276;-50
2023/03/16 11:21:37;;;;;;;3.60;2.00;;;22.50;52.50;;;;;;222294;1265;25438;-52
2023/03/16 11:26:43;;;;;;;3.00;2.00;;;22.60;52.00;;;;;;222439;1269;24317;-51
2023/03/16 11:32:12;;;;;;;3.60;2.20;;;22.60;52.00;;;;;;222285;1269;22517;-50
2023/03/16 11:37:31;;;;;;;3.80;2.10;;;22.60;52.50;;;;;;222265;1269;22514;-49
2023/03/16 11:42:40;;;;;;;3.20;1.90;;;22.50;52.40;;;;;;222319;1270;25297;-51
2023/03/16 11:47:59;;;;;;;3.00;1.80;;;22.60;52.30;;;;;;222271;1263;23710;-52
2023/03/16 11:53:41;;;;;;;5.20;2.10;;;22.50;52.40;;;;;;222278;1263;23419;-50
2023/03/16 11:58:51;;;;;;;2.30;2.00;;;22.50;52.40;;;;;;222391;1264;25390;-50
2023/03/16 12:04:26;;;;;;;2.60;1.90;;;22.60;52.20;;;;;;222214;1269;24357;-48
2023/03/16 12:09:41;;;;;;;3.50;1.50;;;22.60;53.40;;;;;;221958;1263;24183;-48
2023/03/16 12:15:08;;;;;;;4.00;1.70;;;22.60;53.70;;;;;;222265;1257;22508;-46
2023/03/16 12:20:23;;;;;;;3.20;1.60;;;22.60;54.30;;;;;;222394;1264;22518;-51
2023/03/16 12:25:36;;;;;;;3.30;1.90;;;22.60;54.70;;;;;;222349;1263;25089;-45
2023/03/16 12:31:16;;;;;;;2.20;2.00;;;22.60;54.90;;;;;;222240;1269;26634;-49
2023/03/16 12:36:42;;;;;;;4.90;1.80;;;22.70;54.60;;;;;;222317;1264;22530;-47
2023/03/16 12:42:04;;;;;;;3.20;2.10;;;22.80;54.70;;;;;;222257;1254;22518;-49
2023/03/16 12:47:18;;;;;;;3.90;1.90;;;22.90;55.00;;;;;;222276;1256;23927;-48
2023/03/16 12:52:22;;;;;;;2.30;1.50;;;22.80;54.80;;;;;;222410;1266;22558;-50
2023/03/16 12:57:26;;;;;;;2.80;1.30;;;22.90;55.20;;;;;;222232;1263;22880;-48
2023/03/16 13:02:34;;;;;;;1.70;1.60;;;23.00;54.90;;;;;;222342;1269;27202;-52
2023/03/16 13:07:49;;;;;;;2.70;1.70;;;22.90;55.40;;;;;;222338;1270;24199;-47
2023/03/16 13:12:54;;;;;;;2.10;1.30;;;22.90;55.20;;;;;;222255;1263;24055;-48
2023/03/16 13:18:21;;;;;;;1.80;1.40;;;22.90;55.40;;;;;;222283;1263;25269;-50
2023/03/16 13:23:45;;;;;;;1.90;1.70;;;22.80;55.60;;;;;;222268;1269;22511;-44
2023/03/16 13:28:51;;;;;;;1.60;1.50;;;23.00;55.20;;;;;;222225;1257;22995;-45
2023/03/16 13:33:58;;;;;;;1.50;1.40;;;23.00;55.50;;;;;;222305;1263;22515;-50
2023/03/16 13:39:17;;;;;;;2.00;1.40;;;22.90;56.00;;;;;;222202;1256;22527;-45
2023/03/16 13:44:24;;;;;;;2.50;1.20;;;22.70;56.50;;;;;;222262;1270;25268;-48
2023/03/16 13:49:28;;;;;;;2.10;1.70;;;22.80;56.10;;;;;;222118;1263;22593;-44
2023/03/16 13:54:36;;;;;;;2.20;1.50;;;22.90;55.70;;;;;;222223;1267;22513;-44
2023/03/16 13:59:42;;;;;;;2.20;1.30;;;22.90;56.00;;;;;;222368;1252;22571;-51
2023/03/16 14:04:46;;;;;;;2.80;1.40;;;22.90;55.60;;;;;;222159;1264;24207;-51
2023/03/16 14:09:52;;;;;;;5.00;1.60;;;22.90;56.30;;;;;;222098;1267;25670;-49
2023/03/16 14:14:56;;;;;;;2.50;1.50;;;23.00;56.80;;;;;;222228;1261;22535;-53
2023/03/16 14:20:01;;;;;;;1.50;1.40;;;22.90;57.10;;;;;;222365;1263;184577;-52
2023/03/16 14:25:06;;;;;;;1.50;1.10;;;23.00;56.60;;;;;;222415;1269;22651;-49
2023/03/16 14:30:17;;;;;;;1.50;1.40;;;22.90;56.50;;;;;;222456;1263;22635;-57
2023/03/16 14:35:25;;;;;;;2.20;1.30;;;22.80;57.10;;;;;;222126;1263;22984;-53
2023/03/16 14:40:32;;;;;;;1.90;1.20;;;22.80;58.00;;;;;;222178;1263;24233;-55
2023/03/16 14:45:37;;;;;;;2.20;1.30;;;22.70;57.80;;;;;;222179;1267;22810;-56
2023/03/16 14:50:44;;;;;;;10.60;1.70;;;22.80;57.60;;;;;;222161;1264;24796;-54
2023/03/16 14:55:49;;;;;;;1.90;1.50;;;22.80;57.70;;;;;;222039;1257;22539;-55
2023/03/16 15:00:54;;;;;;;1.50;1.20;;;22.70;57.60;;;;;;222201;1270;25396;-50
2023/03/16 15:05:59;;;;;;;1.30;1.20;;;22.70;57.00;;;;;;222328;1264;24312;-49
2023/03/16 15:11:05;;;;;;;1.50;1.40;;;22.60;57.30;;;;;;222305;1263;23866;-52
2023/03/16 15:16:12;;;;;;;2.60;1.40;;;22.60;56.70;;;;;;225564;1266;25252;-57
2023/03/16 15:21:21;;;;;;;2.30;1.00;;;22.60;56.60;;;;;;222215;1266;25336;-58
2023/03/16 15:26:28;;;;;;;3.50;1.60;;;22.60;56.50;;;;;;222256;1267;22533;-64
2023/03/16 15:31:32;;;;;;;2.00;1.10;;;22.40;56.90;;;;;;222370;1252;24183;-63
2023/03/16 15:36:37;;;;;;;1.30;1.00;;;22.30;57.30;;;;;;222246;1263;22580;-56
2023/03/16 15:41:42;;;;;;;1.10;0.90;;;22.20;57.50;;;;;;222604;1263;22673;-50
2023/03/16 15:46:52;;;;;;;1.70;1.20;;;22.10;57.30;;;;;;222322;1263;22651;-53
2023/03/16 15:51:56;;;;;;;1.20;1.10;;;22.10;57.50;;;;;;222266;1263;22530;-48
2023/03/16 15:57:02;;;;;;;4.60;1.40;;;22.00;57.40;;;;;;222471;1269;22521;-60
2023/03/16 16:02:29;;;;;;;0.80;0.80;;;22.00;57.50;;;;;;222206;1265;22522;-53
2023/03/16 16:07:33;;;;;;;2.40;1.00;;;22.00;57.60;;;;;;221857;1257;22517;-49
2023/03/16 16:12:38;;;;;;;1.70;1.20;;;22.00;57.30;;;;;;222218;1263;22515;-53
2023/03/16 16:17:42;;;;;;;2.30;1.40;;;21.90;57.10;;;;;;222150;1264;22511;-54
2023/03/16 16:23:09;;;;;;;8.30;1.30;;;21.90;57.20;;;;;;222090;1270;22511;-53
2023/03/16 16:28:21;;;;;;;13.40;1.90;;;21.90;57.50;;;;;;222045;1263;22518;-52
2023/03/16 16:33:34;;;;;;;;;;;22.00;58.80;;;;;;221877;1264;22711;-55
2023/03/16 16:38:38;;;;;;;6.90;1.70;;;22.20;59.20;;;;;;222053;1263;25490;-50
2023/03/16 16:43:47;;;;;;;8.00;1.30;;;22.20;59.40;;;;;;222136;1264;22666;-51
2023/03/16 16:49:05;;;;;;;4.40;1.20;;;22.00;59.50;;;;;;222278;1263;22533;-56
2023/03/16 16:54:17;;;;;;;6.80;1.50;;;22.00;59.50;;;;;;222162;1263;22991;-52
2023/03/16 16:59:30;;;;;;;4.00;1.50;;;22.00;59.00;;;;;;222150;1258;22696;-50
2023/03/16 17:04:35;;;;;;;7.80;1.30;;;21.90;59.20;;;;;;222053;1263;25278;-58
2023/03/16 17:09:40;;;;;;;3.40;1.30;;;21.90;59.00;;;;;;222098;1263;24418;-56
2023/03/16 17:14:45;;;;;;;3.20;1.30;;;21.80;58.70;;;;;;223478;1270;22605;-57
2023/03/16 17:19:52;;;;;;;3.20;1.30;;;21.80;58.70;;;;;;223364;1263;24395;-56
2023/03/16 17:24:58;;;;;;;3.30;1.20;;;21.70;58.60;;;;;;222253;1262;22512;-58
2023/03/16 17:30:05;;;;;;;4.40;1.40;;;21.70;58.50;;;;;;222010;1270;22518;-57
2023/03/16 17:35:14;;;;;;;6.50;2.40;;;22.00;57.80;;;;;;221809;1265;24231;-55
2023/03/16 17:40:26;;;;;;;;;;;22.30;57.00;;;;;;222277;1264;23010;-52
2023/03/16 17:45:32;;;;;;;16.60;10.40;;;22.50;56.10;;;;;;222285;1267;22515;-55
2023/03/16 17:50:38;;;;;;;19.00;14.40;;;22.70;56.30;;;;;;222204;1263;22519;-56
2023/03/16 17:55:47;;;;;;;19.90;15.10;;;22.70;56.10;;;;;;222165;1263;23313;-55
2023/03/16 18:00:54;;;;;;;17.70;13.70;;;22.80;55.60;;;;;;221982;1248;22641;-57
2023/03/16 18:05:59;;;;;;;18.50;12.90;;;22.90;55.60;;;;;;221945;1256;22528;-44
2023/03/16 18:13:43;;;;;;;17.50;13.60;;;22.90;55.00;;;;;;215013;1301;542759;-40
2023/03/16 18:18:55;;;;;;;21.30;12.80;;;23.00;55.20;;;;;;219675;1270;22556;-40
2023/03/16 18:24:04;;;;;;;18.90;12.10;;;23.10;55.20;;;;;;219707;1275;189402;-39
2023/03/16 18:29:12;;;;;;;14.80;12.10;;;23.20;55.40;;;;;;220073;1273;22542;-40
2023/03/16 18:34:24;;;;;;;16.80;11.80;;;23.20;54.80;;;;;;220003;1267;22646;-39
2023/03/16 18:39:31;;;;;;;14.60;11.90;;;23.30;54.70;;;;;;220150;1275;24205;-40
2023/03/16 18:44:41;;;;;;;14.90;12.00;;;23.30;54.50;;;;;;220188;1271;25214;-41
2023/03/16 18:49:52;;;;;;;18.30;12.60;;;23.30;54.60;;;;;;220206;1268;25646;-40
2023/03/16 18:54:58;;;;;;;18.10;13.30;;;23.30;54.80;;;;;;220105;1276;25375;-41
2023/03/16 19:00:05;;;;;;;18.50;13.40;;;23.10;54.90;;;;;;220154;1278;24197;-43
2023/03/16 19:05:17;;;;;;;17.20;13.30;;;23.00;55.00;;;;;;220207;1274;22534;-39
2023/03/16 19:10:31;;;;;;;21.10;14.10;;;22.90;55.00;;;;;;220165;1277;22521;-39
2023/03/16 19:15:38;;;;;;;;;;;23.00;55.20;;;;;;220215;1278;24208;-44
2023/03/16 19:20:48;;;;;;;23.40;14.60;;;22.90;54.70;;;;;;219916;1275;22643;-44
2023/03/16 19:25:56;;;;;;;19.50;13.40;;;23.00;55.30;;;;;;220033;1275;22534;-46
2023/03/16 19:31:26;;;;;;;24.30;14.70;;;22.90;54.80;;;;;;220243;1277;22610;-44
2023/03/16 19:36:33;;;;;;;26.00;14.40;;;23.00;55.20;;;;;;220121;1268;22539;-42
2023/03/16 19:41:43;;;;;;;26.90;15.30;;;23.20;54.80;;;;;;220128;1278;24380;-41
2023/03/16 19:46:49;;;;;;;32.20;15.90;;;23.00;54.60;;;;;;220232;1268;24152;-41
2023/03/16 19:51:57;;;;;;;21.80;14.00;;;23.00;54.60;;;;;;220146;1279;22542;-41
2023/03/16 19:57:18;;;;;;;30.00;15.60;;;22.90;55.20;;;;;;220286;1275;25245;-41
2023/03/16 20:02:37;;;;;;;30.40;16.20;;;22.70;55.10;;;;;;219973;1275;23188;-40
2023/03/16 20:07:58;;;;;;;31.10;17.00;;;22.60;55.00;;;;;;220093;1275;22529;-38
2023/03/16 20:13:09;;;;;;;29.20;16.30;;;22.50;55.10;;;;;;219949;1280;23416;-39
2023/03/16 20:18:20;;;;;;;31.90;17.00;;;22.50;55.20;;;;;;220077;1281;24067;-37
2023/03/16 20:23:29;;;;;;;29.60;17.00;;;22.40;54.80;;;;;;220183;1276;22605;-39
2023/03/16 20:28:35;;;;;;;28.40;16.90;;;22.50;55.70;;;;;;220129;1267;23120;-39
2023/03/16 20:33:41;;;;;;;37.30;18.80;;;22.30;55.70;;;;;;220163;1281;22642;-40
2023/03/16 20:38:52;;;;;;;26.90;17.70;;;22.30;55.90;;;;;;220008;1281;22534;-39
2023/03/16 20:44:02;;;;;;;30.00;18.20;;;22.20;55.50;;;;;;219992;1279;22535;-40
2023/03/16 20:49:28;;;;;;;32.30;18.30;;;22.20;57.00;;;;;;220589;1274;22604;-38
2023/03/16 20:54:33;;;;;;;36.50;19.40;;;22.20;57.10;;;;;;220623;1278;22524;-40
2023/03/16 20:59:42;;;;;;;30.10;18.80;;;22.10;57.80;;;;;;220425;1273;23926;-39
2023/03/16 21:04:47;;;;;;;37.00;19.40;;;22.00;57.40;;;;;;220654;1272;25258;-39
2023/03/16 21:09:52;;;;;;;36.10;19.30;;;21.90;57.40;;;;;;220591;1273;22563;-41
2023/03/16 21:15:01;;;;;;;34.00;18.90;;;22.00;59.70;;;;;;220552;1272;22527;-39
2023/03/16 21:20:15;;;;;;;35.00;19.00;;;22.00;59.70;;;;;;220428;1258;24213;-42
2023/03/16 21:25:30;;;;;;;41.30;19.10;;;22.10;59.30;;;;;;220481;1270;22518;-40
2023/03/16 21:30:38;;;;;;;33.90;19.00;;;22.00;58.80;;;;;;220548;1271;22780;-40
2023/03/16 21:35:42;;;;;;;30.10;18.50;;;21.90;58.50;;;;;;220578;1272;25502;-40
2023/03/16 21:40:48;;;;;;;27.20;18.80;;;21.80;58.20;;;;;;220529;1270;26081;-41
2023/03/16 21:45:54;;;;;;;31.70;18.10;;;21.80;58.30;;;;;;220537;1265;22540;-40
2023/03/16 21:50:59;;;;;;;31.00;18.00;;;21.80;58.20;;;;;;220658;1273;24100;-40
2023/03/16 21:56:04;;;;;;;29.80;18.70;;;21.80;57.70;;;;;;220472;1272;24375;-40
2023/03/16 22:01:23;;;;;;;26.50;18.70;;;21.70;57.70;;;;;;220447;1273;22618;-40
2023/03/16 22:06:27;;;;;;;30.40;19.30;;;21.60;58.00;;;;;;220435;1274;22597;-40
2023/03/16 22:11:32;;;;;;;30.50;20.90;;;21.60;57.10;;;;;;220569;1270;24404;-42
2023/03/16 22:16:36;;;;;;;32.30;20.70;;;21.60;57.60;;;;;;220560;1273;25343;-40
2023/03/16 22:21:43;;;;;;;38.70;21.90;;;21.60;59.70;;;;;;220563;1274;25358;-41
2023/03/16 22:26:49;;;;;;;29.40;21.60;;;21.50;59.20;;;;;;220677;1265;22532;-41
2023/03/16 22:32:03;;;;;;;32.20;22.80;;;21.60;58.80;;;;;;220557;1270;22539;-40
2023/03/16 22:37:09;;;;;;;33.40;23.30;;;21.50;58.90;;;;;;220664;1260;22639;-39
2023/03/16 22:42:29;;;;;;;33.50;24.20;;;21.60;58.70;;;;;;220498;1264;24276;-40
2023/03/16 22:47:35;;;;;;;30.80;22.30;;;21.80;57.80;;;;;;220774;1264;22557;-39
2023/03/16 22:52:40;;;;;;;31.70;21.30;;;22.30;56.90;;;;;;220713;1271;22778;-41
2023/03/16 22:57:46;;;;;;;28.10;21.70;;;22.50;56.00;;;;;;220787;1274;22530;-38
2023/03/16 23:02:50;;;;;;;30.00;21.20;;;22.80;55.70;;;;;;220768;1270;24308;-40
2023/03/16 23:07:58;;;;;;;27.60;20.10;;;23.00;54.80;;;;;;220838;1255;26707;-40
2023/03/16 23:13:08;;;;;;;26.60;19.70;;;23.00;54.60;;;;;;220614;1264;25398;-39
2023/03/16 23:18:25;;;;;;;25.50;20.70;;;23.10;54.30;;;;;;220701;1265;22510;-40
2023/03/16 23:23:29;;;;;;;25.10;19.40;;;23.10;54.20;;;;;;220797;1254;24507;-41
2023/03/16 23:28:33;;;;;;;25.50;18.80;;;23.10;54.00;;;;;;220732;1270;22517;-42
2023/03/16 23:33:38;;;;;;;24.70;20.10;;;23.10;54.10;;;;;;220880;1270;23173;-40
2023/03/16 23:38:42;;;;;;;27.90;20.90;;;23.20;53.60;;;;;;220777;1272;22565;-40
2023/03/16 23:43:47;;;;;;;28.60;20.00;;;23.20;53.90;;;;;;220738;1257;25370;-41
2023/03/16 23:48:54;;;;;;;24.60;18.60;;;23.20;53.30;;;;;;220666;1270;22521;-40
2023/03/16 23:53:58;;;;;;;22.20;17.20;;;23.10;53.80;;;;;;220419;1271;22527;-39
2023/03/16 23:59:02;;;;;;;26.00;18.50;;;23.00;54.00;;;;;;220713;1264;25482;-42
